createdAt,value
2023-05-15T00:00:23.211Z,16.53
2023-05-15T00:02:53.431Z,15.20
2023-05-15T00:05:23.177Z,15.70
2023-05-15T00:07:53.457Z,15.10
2023-05-15T00:10:23.035Z,14.37
2023-05-15T00:12:53.135Z,15.43
2023-05-15T00:15:23.167Z,14.83
2023-05-15T00:17:53.591Z,14.40
2023-05-15T00:20:23.885Z,15.38
2023-05-15T00:22:54.073Z,15.23
2023-05-15T00:25:24.096Z,14.70
2023-05-15T00:27:53.710Z,15.75
2023-05-15T00:30:24.539Z,14.37
2023-05-15T00:32:54.725Z,15.88
2023-05-15T00:35:25.142Z,15.90
2023-05-15T00:37:54.875Z,14.63
2023-05-15T00:40:26.715Z,14.95
2023-05-15T00:42:57.561Z,14.23
2023-05-15T00:45:29.500Z,14.38
2023-05-15T00:48:01.687Z,14.63
2023-05-15T00:50:32.878Z,13.43
2023-05-15T00:53:04.331Z,14.63
2023-05-15T00:55:35.359Z,13.53
2023-05-15T00:58:05.936Z,14.87
2023-05-15T01:00:36.409Z,14.43
2023-05-15T01:03:07.208Z,15.18
2023-05-15T01:05:37.436Z,14.30
2023-05-15T01:08:26.717Z,14.70
2023-05-15T01:10:58.347Z,14.33
2023-05-15T01:13:28.469Z,14.33
2023-05-15T01:15:59.303Z,16.03
2023-05-15T01:18:31.076Z,14.60
2023-05-15T01:21:18.454Z,15.10
2023-05-15T01:24:03.451Z,14.93
2023-05-15T01:26:45.333Z,15.63
2023-05-15T01:29:27.297Z,16.05
2023-05-15T01:32:00.516Z,15.08
2023-05-15T01:34:34.111Z,14.78
2023-05-15T01:37:04.914Z,16.70
2023-05-15T01:39:36.834Z,15.63
2023-05-15T01:42:09.801Z,16.13
2023-05-15T01:44:46.262Z,16.50
2023-05-15T01:47:18.477Z,16.60
2023-05-15T01:49:51.782Z,16.80
2023-05-15T01:52:39.808Z,17.80
2023-05-15T01:55:10.594Z,17.73
2023-05-15T01:57:43.276Z,17.35
2023-05-15T02:00:18.782Z,18.15
2023-05-15T02:02:49.781Z,16.53
2023-05-15T02:05:20.839Z,17.87
2023-05-15T02:07:51.522Z,17.48
2023-05-15T02:10:23.029Z,19.50
2023-05-15T02:12:55.999Z,17.82
2023-05-15T02:15:26.050Z,16.90
2023-05-15T02:17:56.731Z,17.57
2023-05-15T02:20:26.652Z,18.53
2023-05-15T02:22:56.782Z,19.05
2023-05-15T02:25:32.207Z,18.40
2023-05-15T02:28:04.576Z,20.05
2023-05-15T02:30:46.146Z,20.13
2023-05-15T02:33:22.231Z,19.42
2023-05-15T02:35:58.956Z,19.87
2023-05-15T02:38:32.068Z,18.97
2023-05-15T02:41:03.287Z,20.10
2023-05-15T02:43:37.371Z,19.02
2023-05-15T02:46:08.879Z,20.57
2023-05-15T02:48:44.092Z,20.83
2023-05-15T02:51:15.387Z,21.52
2023-05-15T02:53:45.311Z,21.70
2023-05-15T02:56:17.382Z,22.23
2023-05-15T02:58:47.377Z,23.87
2023-05-15T03:01:17.557Z,24.37
2023-05-15T03:03:49.385Z,26.30
2023-05-15T03:06:19.244Z,26.60
2023-05-15T03:08:49.359Z,31.05
2023-05-15T03:11:21.306Z,30.83
2023-05-15T03:13:51.570Z,33.05
2023-05-15T03:16:21.884Z,34.73
2023-05-15T03:18:51.776Z,35.13
2023-05-15T03:21:21.682Z,37.43
2023-05-15T03:23:51.865Z,36.77
2023-05-15T03:26:21.757Z,38.40
2023-05-15T03:28:51.586Z,37.87
2023-05-15T03:31:21.519Z,40.00
2023-05-15T03:33:51.571Z,38.23
2023-05-15T03:36:22.487Z,37.33
2023-05-15T03:38:52.330Z,38.13
2023-05-15T03:41:22.775Z,36.93
2023-05-15T03:43:52.873Z,34.98
2023-05-15T03:46:22.810Z,35.30
2023-05-15T03:48:54.537Z,34.07
2023-05-15T03:51:24.439Z,33.83
2023-05-15T03:53:56.121Z,32.20
2023-05-15T03:56:26.066Z,32.40
2023-05-15T03:58:56.259Z,30.77
2023-05-15T04:01:26.555Z,29.75
2023-05-15T04:03:56.619Z,29.67
2023-05-15T04:06:26.114Z,28.90
2023-05-15T04:08:55.952Z,27.33
2023-05-15T04:11:26.785Z,27.40
2023-05-15T04:13:56.972Z,26.87
2023-05-15T04:16:26.928Z,26.73
2023-05-15T04:18:57.127Z,27.13
2023-05-15T04:21:26.907Z,26.37
2023-05-15T04:23:57.011Z,26.33
2023-05-15T04:26:26.853Z,25.20
2023-05-15T04:29:03.939Z,26.02
2023-05-15T04:31:28.723Z,25.77
2023-05-15T04:33:58.553Z,26.00
2023-05-15T04:36:28.526Z,25.17
2023-05-15T04:38:58.639Z,25.50
2023-05-15T04:41:28.478Z,25.97
2023-05-15T04:43:58.580Z,27.10
2023-05-15T04:46:29.261Z,27.17
2023-05-15T04:48:59.223Z,28.47
2023-05-15T04:51:29.204Z,29.33
2023-05-15T04:53:59.040Z,30.53
2023-05-15T04:56:28.876Z,31.67
2023-05-15T04:58:58.728Z,32.37
2023-05-15T05:01:28.945Z,31.45
2023-05-15T05:03:58.869Z,32.07
2023-05-15T05:06:30.451Z,30.23
2023-05-15T05:09:00.578Z,31.00
2023-05-15T05:11:30.892Z,32.40
2023-05-15T05:14:00.772Z,31.67
2023-05-15T05:16:30.644Z,31.45
2023-05-15T05:19:00.796Z,32.28
2023-05-15T05:21:31.305Z,32.48
2023-05-15T05:24:01.781Z,33.78
2023-05-15T05:26:31.530Z,32.83
2023-05-15T05:29:01.630Z,35.88
2023-05-15T05:31:31.841Z,33.73
2023-05-15T05:34:02.042Z,34.40
2023-05-15T05:36:31.902Z,33.33
2023-05-15T05:39:02.088Z,34.15
2023-05-15T05:41:32.265Z,32.57
2023-05-15T05:44:02.373Z,34.13
2023-05-15T05:46:32.127Z,31.33
2023-05-15T05:49:02.345Z,33.63
2023-05-15T05:51:32.693Z,31.60
2023-05-15T05:54:02.812Z,30.30
2023-05-15T05:56:32.678Z,31.23
2023-05-15T05:59:02.934Z,29.65
2023-05-15T06:01:33.030Z,29.23
2023-05-15T06:04:03.221Z,29.37
2023-05-15T06:06:33.393Z,30.77
2023-05-15T06:09:04.158Z,29.98
2023-05-15T06:11:34.450Z,30.00
2023-05-15T06:14:04.622Z,30.90
2023-05-15T06:16:34.472Z,30.67
2023-05-15T06:19:04.660Z,31.05
2023-05-15T06:21:34.818Z,30.50
2023-05-15T06:24:05.088Z,29.23
2023-05-15T06:26:35.044Z,31.17
2023-05-15T06:29:05.237Z,31.68
2023-05-15T06:31:35.523Z,32.80
2023-05-15T06:34:06.401Z,33.42
2023-05-15T06:36:36.195Z,33.57
2023-05-15T06:39:06.588Z,34.40
2023-05-15T06:41:36.453Z,33.23
2023-05-15T06:44:06.755Z,34.08
2023-05-15T06:46:36.687Z,35.07
2023-05-15T06:49:06.789Z,33.83
2023-05-15T06:51:36.909Z,38.75
2023-05-15T06:54:07.081Z,37.98
2023-05-15T06:56:36.969Z,35.30
2023-05-15T06:59:07.132Z,36.90
2023-05-15T07:01:38.161Z,36.27
2023-05-15T07:04:08.530Z,32.55
2023-05-15T07:06:39.032Z,33.02
2023-05-15T07:09:09.313Z,34.38
2023-05-15T07:11:40.205Z,32.90
2023-05-15T07:14:10.290Z,34.53
2023-05-15T07:16:40.137Z,34.80
2023-05-15T07:19:10.637Z,36.58
2023-05-15T07:21:40.980Z,36.70
2023-05-15T07:24:11.096Z,36.70
2023-05-15T07:26:50.144Z,35.27
2023-05-15T07:29:12.866Z,35.28
2023-05-15T07:31:44.320Z,32.27
2023-05-15T07:34:14.166Z,32.10
2023-05-15T07:36:43.981Z,32.43
2023-05-15T07:39:14.149Z,34.35
2023-05-15T07:41:44.396Z,35.60
2023-05-15T07:44:14.777Z,37.28
2023-05-15T07:46:45.786Z,34.73
2023-05-15T07:49:15.925Z,32.80
2023-05-15T07:51:45.779Z,32.07
2023-05-15T07:54:15.926Z,31.95
2023-05-15T07:56:46.072Z,29.42
2023-05-15T07:59:16.294Z,30.17
2023-05-15T08:01:46.086Z,29.17
2023-05-15T08:04:16.260Z,25.77
2023-05-15T08:06:46.124Z,25.00
2023-05-15T08:09:16.237Z,25.52
2023-05-15T08:11:46.408Z,23.32
2023-05-15T08:14:16.284Z,21.57
2023-05-15T08:16:46.122Z,19.90
2023-05-15T08:19:16.310Z,20.00
2023-05-15T08:21:46.242Z,18.30
2023-05-15T08:24:16.343Z,19.23
2023-05-15T08:26:45.854Z,18.55
2023-05-15T08:29:16.767Z,18.05
2023-05-15T08:31:46.382Z,16.75
2023-05-15T08:34:17.434Z,16.73
2023-05-15T08:36:47.259Z,16.27
2023-05-15T08:39:17.127Z,15.87
2023-05-15T08:41:55.548Z,16.73
2023-05-15T08:44:25.805Z,16.57
2023-05-15T08:46:56.537Z,16.97
2023-05-15T08:49:42.635Z,16.60
2023-05-15T08:52:12.785Z,16.33
2023-05-15T08:54:43.552Z,15.57
2023-05-15T08:57:15.378Z,16.07
2023-05-15T08:59:45.060Z,15.55
2023-05-15T09:02:15.524Z,17.03
2023-05-15T09:04:45.902Z,17.47
2023-05-15T09:07:17.471Z,19.07
2023-05-15T09:09:48.300Z,21.03
2023-05-15T09:12:20.992Z,20.95
2023-05-15T09:14:50.685Z,19.55
2023-05-15T09:17:21.070Z,20.50
2023-05-15T09:19:50.865Z,22.93
2023-05-15T09:22:23.761Z,21.56
2023-05-15T09:24:53.848Z,20.55
2023-05-15T09:27:23.677Z,20.47
2023-05-15T09:29:55.198Z,20.00
2023-05-15T09:32:28.473Z,18.63
2023-05-15T09:34:58.302Z,19.43
2023-05-15T09:37:33.686Z,19.73
2023-05-15T09:40:12.358Z,19.97
2023-05-15T09:42:42.192Z,21.07
2023-05-15T09:45:15.009Z,20.03
2023-05-15T09:47:45.297Z,20.63
2023-05-15T09:50:19.135Z,21.13
2023-05-15T09:52:49.018Z,19.13
2023-05-15T09:55:20.295Z,19.10
2023-05-15T09:58:13.726Z,20.10
2023-05-15T10:00:48.658Z,19.50
2023-05-15T10:03:17.801Z,19.23
2023-05-15T10:05:47.887Z,19.27
2023-05-15T10:08:29.586Z,20.17
2023-05-15T10:11:01.541Z,18.85
2023-05-15T10:13:34.559Z,19.40
2023-05-15T10:16:05.951Z,19.00
2023-05-15T10:18:38.723Z,18.85
2023-05-15T10:21:10.407Z,21.83
2023-05-15T10:23:43.525Z,20.73
2023-05-15T10:26:20.064Z,23.30
2023-05-15T10:28:51.112Z,22.37
2023-05-15T10:31:22.806Z,22.55
2023-05-15T10:33:55.225Z,21.83
2023-05-15T10:36:25.681Z,22.50
2023-05-15T10:38:55.882Z,23.12
2023-05-15T10:41:27.898Z,23.47
2023-05-15T10:44:01.743Z,22.90
2023-05-15T10:46:33.763Z,23.07
2023-05-15T10:49:03.717Z,22.45
2023-05-15T10:51:35.808Z,22.13
2023-05-15T10:56:52.337Z,23.47
2023-05-15T10:59:24.019Z,23.67
2023-05-15T11:01:54.353Z,24.00
2023-05-15T11:04:26.440Z,23.80
2023-05-15T11:06:59.316Z,23.20
2023-05-15T11:09:37.653Z,21.90
2023-05-15T11:12:11.726Z,22.92
2023-05-15T11:14:46.912Z,22.63
2023-05-15T11:17:17.598Z,21.80
2023-05-15T11:19:57.883Z,21.47
2023-05-15T11:22:39.967Z,21.20
2023-05-15T11:25:14.599Z,21.83
2023-05-15T11:27:46.521Z,22.10
2023-05-15T11:30:22.321Z,22.22
2023-05-15T11:32:58.350Z,21.40
2023-05-15T11:35:33.676Z,22.07
2023-05-15T11:38:06.312Z,22.03
2023-05-15T11:40:54.874Z,21.87
2023-05-15T11:43:27.191Z,21.70
2023-05-15T11:45:58.436Z,21.85
2023-05-15T11:48:35.948Z,22.25
2023-05-15T11:51:06.717Z,23.00
2023-05-15T11:53:38.689Z,22.93
2023-05-15T11:56:08.549Z,22.70
2023-05-15T11:58:40.201Z,24.10
2023-05-15T12:01:12.475Z,23.43
2023-05-15T12:03:42.435Z,24.47
2023-05-15T12:06:12.915Z,24.34
2023-05-15T12:08:42.599Z,23.20
2023-05-15T12:11:13.118Z,23.77
2023-05-15T12:13:43.127Z,23.33
2023-05-15T12:16:14.561Z,24.23
2023-05-15T12:18:44.466Z,24.40
2023-05-15T12:21:14.563Z,25.50
2023-05-15T12:24:06.215Z,25.80
2023-05-15T12:26:26.671Z,25.50
2023-05-15T12:28:57.214Z,25.97
2023-05-15T12:31:27.310Z,25.77
2023-05-15T12:33:57.993Z,27.73
2023-05-15T12:36:32.046Z,27.50
2023-05-15T12:39:08.058Z,28.80
2023-05-15T12:41:38.969Z,28.27
2023-05-15T12:44:21.258Z,26.94
2023-05-15T12:46:54.312Z,27.37
2023-05-15T12:49:24.749Z,28.53
2023-05-15T12:51:54.562Z,29.40
2023-05-15T12:54:26.199Z,27.07
2023-05-15T12:56:57.876Z,30.53
2023-05-15T12:59:27.884Z,29.77
2023-05-15T13:01:57.587Z,28.95
2023-05-15T13:04:27.786Z,29.60
2023-05-15T13:06:57.688Z,27.47
2023-05-15T13:09:27.507Z,26.87
2023-05-15T13:11:57.651Z,27.93
2023-05-15T13:14:30.740Z,26.95
2023-05-15T13:17:04.045Z,25.00
2023-05-15T13:19:34.284Z,26.25
2023-05-15T13:22:06.634Z,26.76
2023-05-15T13:24:36.447Z,24.03
2023-05-15T13:27:06.600Z,27.33
2023-05-15T13:29:36.428Z,25.00
2023-05-15T13:32:07.672Z,24.35
2023-05-15T13:34:37.471Z,25.47
2023-05-15T13:37:07.657Z,24.77
2023-05-15T13:39:37.525Z,25.90
2023-05-15T13:42:07.522Z,25.00
2023-05-15T13:44:37.626Z,26.50
2023-05-15T13:47:07.562Z,27.67
2023-05-15T13:49:37.355Z,29.17
2023-05-15T13:52:07.507Z,26.80
2023-05-15T13:54:37.329Z,26.13
2023-05-15T13:57:07.332Z,26.63
2023-05-15T13:59:37.147Z,28.20
2023-05-15T14:02:07.047Z,27.17
2023-05-15T14:04:37.612Z,26.30
2023-05-15T14:07:07.432Z,24.77
2023-05-15T14:09:37.236Z,23.47
2023-05-15T14:12:09.204Z,18.63
2023-05-15T14:14:38.999Z,17.03
2023-05-15T14:17:08.816Z,14.90
2023-05-15T14:19:38.643Z,13.00
2023-05-15T14:22:09.954Z,12.17
2023-05-15T14:24:40.060Z,10.80
2023-05-15T14:27:09.803Z,10.40
2023-05-15T14:29:41.023Z,9.27
2023-05-15T14:32:10.525Z,9.13
2023-05-15T14:34:40.333Z,9.87
2023-05-15T14:37:10.361Z,9.43
2023-05-15T14:39:40.438Z,9.85
2023-05-15T14:42:10.122Z,10.80
2023-05-15T14:44:40.361Z,11.08
2023-05-15T14:47:13.551Z,10.63
2023-05-15T14:49:43.378Z,11.30
2023-05-15T14:52:13.385Z,11.65
2023-05-15T14:54:43.776Z,11.30
2023-05-15T14:57:16.234Z,11.83
2023-05-15T14:59:46.101Z,11.13
2023-05-15T15:02:16.380Z,11.78
2023-05-15T15:04:46.186Z,9.80
2023-05-15T15:07:16.271Z,9.70
2023-05-15T15:09:45.851Z,9.00
2023-05-15T15:12:16.368Z,8.13
2023-05-15T15:14:46.247Z,6.97
2023-05-15T15:17:16.056Z,6.73
2023-05-15T15:19:45.872Z,6.90
2023-05-15T15:22:16.109Z,6.58
2023-05-15T15:24:46.262Z,6.25
2023-05-15T15:27:16.008Z,7.10
2023-05-15T15:29:46.338Z,5.70
2023-05-15T15:34:42.766Z,7.00
2023-05-15T15:37:12.574Z,6.60
2023-05-15T15:39:42.410Z,6.30
2023-05-15T15:42:12.984Z,4.97
2023-05-15T15:44:43.554Z,6.17
2023-05-15T15:47:13.377Z,6.00
2023-05-15T15:49:43.422Z,5.73
2023-05-15T15:52:13.426Z,5.45
2023-05-15T15:54:44.596Z,5.05
2023-05-15T15:57:21.827Z,5.13
2023-05-15T15:59:51.694Z,5.53
2023-05-15T16:02:21.601Z,4.70
2023-05-15T16:04:51.370Z,5.23
2023-05-15T16:07:21.273Z,5.17
2023-05-15T16:09:56.947Z,4.67
2023-05-15T16:12:22.827Z,3.92
2023-05-15T16:14:52.638Z,4.97
2023-05-15T16:17:22.473Z,4.33
2023-05-15T16:19:52.246Z,4.23
2023-05-15T16:22:23.114Z,4.10
2023-05-15T16:24:52.913Z,3.70
2023-05-15T16:27:22.712Z,3.33
2023-05-15T16:29:52.591Z,3.40
2023-05-15T16:32:22.482Z,2.87
2023-05-15T16:34:52.423Z,2.90
2023-05-15T16:37:22.235Z,2.80
2023-05-15T16:39:52.031Z,2.57
2023-05-15T16:42:21.862Z,2.83
2023-05-15T16:44:51.633Z,2.40
2023-05-15T16:47:21.513Z,2.70
2023-05-15T16:49:51.316Z,2.20
2023-05-15T16:52:20.860Z,2.47
2023-05-15T16:54:50.485Z,2.20
2023-05-15T16:57:20.330Z,2.17
2023-05-15T16:59:50.496Z,2.40
2023-05-15T17:02:20.050Z,2.40
2023-05-15T17:04:49.882Z,3.10
2023-05-15T17:07:19.661Z,3.40
2023-05-15T17:09:49.466Z,3.27
2023-05-15T17:12:19.046Z,3.40
2023-05-15T17:14:48.923Z,3.20
2023-05-15T17:17:18.908Z,3.60
2023-05-15T17:19:48.747Z,3.60
2023-05-15T17:22:18.555Z,3.72
2023-05-15T17:24:51.720Z,3.23
2023-05-15T17:27:21.739Z,3.90
2023-05-15T17:29:51.886Z,4.03
2023-05-15T17:32:21.837Z,3.77
2023-05-15T17:34:52.072Z,3.97
2023-05-15T17:37:21.814Z,3.73
2023-05-15T17:39:51.638Z,3.23
2023-05-15T17:42:21.683Z,3.67
2023-05-15T17:44:51.763Z,3.43
2023-05-15T17:47:21.696Z,4.00
2023-05-15T17:49:51.538Z,4.27
2023-05-15T17:52:21.051Z,3.83
2023-05-15T17:54:50.891Z,3.60
2023-05-15T17:57:20.681Z,4.03
2023-05-15T17:59:50.473Z,3.73
2023-05-15T18:02:20.035Z,3.67
2023-05-15T18:04:49.827Z,3.97
2023-05-15T18:07:19.649Z,3.30
2023-05-15T18:09:50.113Z,3.98
2023-05-15T18:12:19.935Z,4.30
2023-05-15T18:14:49.586Z,4.55
2023-05-15T18:17:20.045Z,3.90
2023-05-15T18:19:49.855Z,4.37
2023-05-15T18:22:20.437Z,4.90
2023-05-15T18:24:50.541Z,4.60
2023-05-15T18:27:20.262Z,4.60
2023-05-15T18:29:50.076Z,5.27
2023-05-15T18:32:19.882Z,4.67
2023-05-15T18:34:50.131Z,4.63
2023-05-15T18:37:20.082Z,3.77
2023-05-15T18:39:49.920Z,4.23
2023-05-15T18:42:19.742Z,3.57
2023-05-15T18:44:49.570Z,3.53
2023-05-15T18:47:19.992Z,2.47
2023-05-15T18:49:49.798Z,2.83
2023-05-15T18:52:21.209Z,2.12
2023-05-15T18:54:52.487Z,2.17
2023-05-15T18:57:22.562Z,2.33
2023-05-15T18:59:52.862Z,2.47
2023-05-15T19:02:24.522Z,1.92
2023-05-15T19:04:54.101Z,2.87
2023-05-15T19:07:23.949Z,2.77
2023-05-15T19:09:53.749Z,2.57
2023-05-15T19:12:23.830Z,2.10
2023-05-15T19:14:53.727Z,2.43
2023-05-15T19:17:24.261Z,2.25
2023-05-15T19:19:54.857Z,2.57
2023-05-15T19:22:24.438Z,2.23
2023-05-15T19:24:54.292Z,2.67
2023-05-15T19:27:24.098Z,2.20
2023-05-15T19:29:53.915Z,2.40
2023-05-15T19:32:23.835Z,2.17
2023-05-15T19:34:53.658Z,2.30
2023-05-15T19:37:23.762Z,2.47
2023-05-15T19:39:54.036Z,2.37
2023-05-15T19:42:23.629Z,2.00
2023-05-15T19:44:53.468Z,1.93
2023-05-15T19:47:23.389Z,2.60
2023-05-15T19:49:53.185Z,2.47
2023-05-15T19:52:23.067Z,1.57
2023-05-15T19:54:52.872Z,2.00
2023-05-15T19:57:22.984Z,2.00
2023-05-15T19:59:52.861Z,1.80
2023-05-15T20:02:22.401Z,1.73
2023-05-15T20:04:52.239Z,2.67
2023-05-15T20:07:22.021Z,1.60
2023-05-15T20:09:51.822Z,1.70
2023-05-15T20:12:21.633Z,1.52
2023-05-15T20:14:52.166Z,2.43
2023-05-15T20:17:22.034Z,2.00
2023-05-15T20:19:53.762Z,1.60
2023-05-15T20:22:23.446Z,1.93
2023-05-15T20:24:53.230Z,2.03
2023-05-15T20:27:23.322Z,1.90
2023-05-15T20:29:53.207Z,1.87
2023-05-15T20:32:22.982Z,1.50
2023-05-15T20:34:53.832Z,1.40
2023-05-15T20:37:25.864Z,2.00
2023-05-15T20:39:55.927Z,1.10
2023-05-15T20:42:27.455Z,1.00
2023-05-15T20:44:57.251Z,0.90
2023-05-15T20:47:27.094Z,0.60
2023-05-15T20:49:56.929Z,0.97
2023-05-15T20:52:26.411Z,0.80
2023-05-15T20:54:56.218Z,0.73
2023-05-15T20:57:26.063Z,0.50
2023-05-15T20:59:55.853Z,0.70
2023-05-15T21:02:25.822Z,0.50
2023-05-15T21:04:55.655Z,0.40
2023-05-15T21:07:25.428Z,0.50
2023-05-15T21:09:55.212Z,0.40
2023-05-15T21:12:24.720Z,0.50
2023-05-15T21:14:54.511Z,0.50
2023-05-15T21:17:24.025Z,0.93
2023-05-15T21:19:53.967Z,0.70
2023-05-15T21:22:23.903Z,0.88
2023-05-15T21:24:53.832Z,0.77
2023-05-15T21:27:23.629Z,0.70
2023-05-15T21:29:53.715Z,0.70
2023-05-15T21:32:23.511Z,0.78
2023-05-15T21:34:53.576Z,0.57
2023-05-15T21:37:23.675Z,0.70
2023-05-15T21:39:53.222Z,0.80
2023-05-15T21:42:23.116Z,1.00
2023-05-15T21:44:52.904Z,1.10
2023-05-15T21:47:22.785Z,0.80
2023-05-15T21:49:52.744Z,1.60
2023-05-15T21:52:22.528Z,1.20
2023-05-15T21:54:52.056Z,1.20
2023-05-15T21:57:21.853Z,0.90
2023-05-15T21:59:51.632Z,1.00
2023-05-15T22:02:22.412Z,1.23
2023-05-15T22:04:52.545Z,1.42
2023-05-15T22:07:22.615Z,1.27
2023-05-15T22:09:53.043Z,1.70
2023-05-15T22:12:22.664Z,1.13
2023-05-15T22:14:59.125Z,1.00
2023-05-15T22:17:25.571Z,1.93
2023-05-15T22:19:57.289Z,1.50
2023-05-15T22:22:26.799Z,1.90
2023-05-15T22:24:56.624Z,1.70
2023-05-15T22:27:26.841Z,1.80
2023-05-15T22:29:57.014Z,1.77
2023-05-15T22:32:26.651Z,2.00
2023-05-15T22:34:57.039Z,2.17
2023-05-15T22:37:26.948Z,1.53
2023-05-15T22:39:56.806Z,1.30
2023-05-15T22:42:28.023Z,1.57
2023-05-15T22:44:57.942Z,1.70
2023-05-15T22:47:31.043Z,1.90
2023-05-15T22:50:01.063Z,2.33
2023-05-15T22:52:30.881Z,1.67
2023-05-15T22:55:00.681Z,1.67
2023-05-15T22:57:31.086Z,2.05
2023-05-15T23:00:00.894Z,2.17
2023-05-15T23:02:30.808Z,1.83
2023-05-15T23:05:01.146Z,2.47
2023-05-15T23:07:31.015Z,2.00
2023-05-15T23:10:00.887Z,1.77
2023-05-15T23:12:30.886Z,2.10
2023-05-15T23:15:00.673Z,2.10
2023-05-15T23:17:30.913Z,2.02
2023-05-15T23:20:00.721Z,2.20
2023-05-15T23:22:30.540Z,2.17
2023-05-15T23:25:00.792Z,2.25
2023-05-15T23:27:30.797Z,1.93
2023-05-15T23:30:00.663Z,2.23
2023-05-15T23:32:30.554Z,2.00
2023-05-15T23:35:00.075Z,2.05
2023-05-15T23:37:30.135Z,2.27
2023-05-15T23:40:00.016Z,2.70
2023-05-15T23:42:31.292Z,1.77
2023-05-15T23:45:01.089Z,2.47
2023-05-15T23:47:30.963Z,2.50
2023-05-15T23:50:00.852Z,2.47
2023-05-15T23:52:30.665Z,2.33
2023-05-15T23:55:00.816Z,2.50
2023-05-15T23:57:31.273Z,2.65
